createdAt,value
2022-11-29T00:01:40.784Z,87.30
2022-11-29T00:04:08.947Z,87.20
2022-11-29T00:06:37.760Z,87.20
2022-11-29T00:09:07.859Z,87.20
2022-11-29T00:11:56.124Z,87.20
2022-11-29T00:14:25.296Z,87.20
2022-11-29T00:16:57.248Z,87.20
2022-11-29T00:19:25.373Z,87.00
2022-11-29T00:21:53.939Z,87.00
2022-11-29T00:24:22.634Z,87.00
2022-11-29T00:26:51.159Z,87.10
2022-11-29T00:29:20.152Z,87.10
2022-11-29T00:31:48.208Z,87.10
2022-11-29T00:34:18.273Z,87.00
2022-11-29T00:36:46.364Z,87.10
2022-11-29T00:39:16.760Z,87.20
2022-11-29T00:41:45.026Z,87.20
2022-11-29T00:44:19.683Z,87.20
2022-11-29T00:46:48.589Z,87.20
2022-11-29T00:49:18.956Z,87.20
2022-11-29T00:51:47.645Z,87.30
2022-11-29T00:54:16.126Z,87.30
2022-11-29T00:56:44.737Z,87.50
2022-11-29T00:59:12.906Z,87.50
2022-11-29T01:01:42.049Z,87.40
2022-11-29T01:04:10.674Z,87.40
2022-11-29T01:06:40.268Z,87.50
2022-11-29T01:09:08.996Z,87.60
2022-11-29T01:11:37.132Z,87.50
2022-11-29T01:14:06.617Z,87.50
2022-11-29T01:16:35.536Z,87.50
2022-11-29T01:19:04.424Z,87.50
2022-11-29T01:21:32.588Z,87.40
2022-11-29T01:24:02.903Z,87.40
2022-11-29T01:26:32.165Z,87.50
2022-11-29T01:29:01.254Z,87.50
2022-11-29T01:31:31.345Z,87.50
2022-11-29T01:34:01.585Z,87.60
2022-11-29T01:36:30.352Z,87.50
2022-11-29T01:39:02.700Z,87.50
2022-11-29T01:41:33.700Z,87.20
2022-11-29T01:44:05.356Z,87.20
2022-11-29T01:46:35.614Z,88.10
2022-11-29T01:49:09.192Z,87.30
2022-11-29T01:51:41.916Z,87.40
2022-11-29T01:54:12.547Z,87.30
2022-11-29T01:56:42.690Z,87.20
2022-11-29T01:59:13.315Z,87.20
2022-11-29T02:01:41.963Z,87.30
2022-11-29T02:04:10.607Z,87.30
2022-11-29T02:06:40.233Z,87.30
2022-11-29T02:09:21.571Z,87.30
2022-11-29T02:12:11.851Z,87.30
2022-11-29T02:15:00.182Z,87.40
2022-11-29T02:17:37.526Z,87.30
2022-11-29T02:20:43.021Z,87.20
2022-11-29T02:23:31.799Z,87.10
2022-11-29T02:26:15.743Z,87.20
2022-11-29T02:29:01.701Z,87.20
2022-11-29T02:32:00.404Z,88.10
2022-11-29T02:34:53.123Z,87.30
2022-11-29T02:37:51.076Z,87.30
2022-11-29T02:40:36.916Z,87.30
2022-11-29T02:43:40.937Z,87.30
2022-11-29T02:46:18.258Z,87.40
2022-11-29T02:48:57.312Z,87.20
2022-11-29T02:51:32.907Z,87.20
2022-11-29T02:54:08.219Z,87.20
2022-11-29T02:56:44.180Z,87.30
2022-11-29T02:59:18.799Z,87.50
2022-11-29T03:01:55.697Z,87.50
2022-11-29T03:04:33.067Z,87.50
2022-11-29T03:07:08.556Z,87.70
2022-11-29T03:09:43.236Z,87.50
2022-11-29T03:12:20.920Z,87.50
2022-11-29T03:14:59.435Z,87.50
2022-11-29T03:17:36.005Z,87.60
2022-11-29T03:20:18.644Z,87.60
2022-11-29T03:23:05.782Z,87.70
2022-11-29T03:25:40.487Z,87.70
2022-11-29T03:28:16.288Z,87.60
2022-11-29T03:30:50.595Z,87.60
2022-11-29T03:33:26.876Z,87.60
2022-11-29T03:36:02.855Z,87.70
2022-11-29T03:38:41.411Z,87.70
2022-11-29T03:41:24.116Z,87.60
2022-11-29T03:43:58.106Z,87.70
2022-11-29T03:46:33.086Z,87.60
2022-11-29T03:49:05.772Z,87.60
2022-11-29T03:51:47.004Z,87.60
2022-11-29T03:54:20.547Z,87.60
2022-11-29T03:56:49.906Z,87.70
2022-11-29T03:59:31.158Z,87.70
2022-11-29T04:02:37.951Z,87.70
2022-11-29T04:05:34.049Z,87.80
2022-11-29T04:08:21.039Z,88.00
2022-11-29T04:11:55.238Z,87.90
2022-11-29T04:14:35.481Z,87.90
2022-11-29T04:17:35.457Z,87.50
2022-11-29T04:20:37.791Z,87.50
2022-11-29T04:23:56.934Z,87.20
2022-11-29T04:26:52.305Z,87.50
2022-11-29T04:30:00.970Z,87.50
2022-11-29T04:32:54.287Z,87.70
2022-11-29T04:35:35.562Z,87.80
2022-11-29T04:38:40.614Z,87.90
2022-11-29T04:41:37.708Z,88.00
2022-11-29T04:44:19.605Z,88.10
2022-11-29T04:46:58.196Z,88.10
2022-11-29T04:49:54.619Z,88.10
2022-11-29T04:52:37.933Z,88.10
2022-11-29T04:55:27.638Z,88.20
2022-11-29T04:58:08.139Z,88.20
2022-11-29T05:00:51.660Z,88.10
2022-11-29T05:03:29.884Z,88.10
2022-11-29T05:06:03.905Z,88.20
2022-11-29T05:08:50.406Z,88.30
2022-11-29T05:11:27.373Z,88.40
2022-11-29T05:14:03.573Z,88.50
2022-11-29T05:16:49.982Z,88.50
2022-11-29T05:19:49.446Z,88.60
2022-11-29T05:22:34.301Z,88.50
2022-11-29T05:25:15.586Z,88.40
2022-11-29T05:27:48.369Z,88.40
2022-11-29T05:30:19.693Z,88.40
2022-11-29T05:32:58.526Z,88.40
2022-11-29T05:35:53.142Z,88.60
2022-11-29T05:38:46.129Z,88.70
2022-11-29T05:41:27.385Z,89.60
2022-11-29T05:44:05.765Z,88.50
2022-11-29T05:46:41.074Z,88.40
2022-11-29T05:49:26.940Z,88.30
2022-11-29T05:52:01.641Z,88.10
2022-11-29T05:54:33.887Z,88.10
2022-11-29T05:57:12.583Z,88.20
2022-11-29T05:59:43.494Z,88.30
2022-11-29T06:02:23.744Z,88.40
2022-11-29T06:05:04.653Z,88.60
2022-11-29T06:07:40.133Z,88.80
2022-11-29T06:10:13.652Z,88.70
2022-11-29T06:12:46.611Z,88.80
2022-11-29T06:15:34.053Z,88.90
2022-11-29T06:18:22.169Z,89.00
2022-11-29T06:21:04.022Z,89.10
2022-11-29T06:23:54.735Z,89.00
2022-11-29T06:26:53.027Z,89.00
2022-11-29T06:29:30.150Z,89.10
2022-11-29T06:32:08.852Z,89.00
2022-11-29T06:34:48.026Z,89.00
2022-11-29T06:37:23.115Z,89.00
2022-11-29T06:39:51.638Z,89.00
2022-11-29T06:42:20.298Z,89.00
2022-11-29T06:44:49.007Z,89.10
2022-11-29T06:47:25.978Z,89.20
2022-11-29T06:50:00.328Z,89.30
2022-11-29T06:52:39.535Z,89.30
2022-11-29T06:55:15.672Z,89.30
2022-11-29T06:58:04.715Z,89.30
2022-11-29T07:00:42.025Z,89.40
2022-11-29T07:03:42.994Z,89.20
2022-11-29T07:06:16.519Z,89.00
2022-11-29T07:08:48.857Z,88.90
2022-11-29T07:11:19.350Z,89.00
2022-11-29T07:13:47.963Z,89.10
2022-11-29T07:16:23.596Z,89.20
2022-11-29T07:19:01.603Z,89.20
2022-11-29T07:21:45.810Z,89.10
2022-11-29T07:24:31.333Z,89.10
2022-11-29T07:27:10.411Z,89.20
2022-11-29T07:29:48.661Z,89.30
2022-11-29T07:32:24.245Z,89.40
2022-11-29T07:35:03.186Z,89.60
2022-11-29T07:37:41.121Z,89.70
2022-11-29T07:40:16.976Z,89.60
2022-11-29T07:42:56.458Z,89.70
2022-11-29T07:45:29.161Z,89.80
2022-11-29T07:47:57.230Z,89.70
2022-11-29T07:50:26.969Z,89.70
2022-11-29T07:52:56.550Z,89.80
2022-11-29T07:55:27.718Z,89.80
2022-11-29T07:57:55.774Z,89.90
2022-11-29T08:00:24.932Z,89.80
2022-11-29T08:02:53.570Z,89.80
2022-11-29T08:05:22.482Z,89.80
2022-11-29T08:07:51.163Z,89.80
2022-11-29T08:10:19.960Z,90.00
2022-11-29T08:12:52.615Z,89.90
2022-11-29T08:15:22.246Z,90.00
2022-11-29T08:17:51.108Z,90.00
2022-11-29T08:20:19.973Z,90.00
2022-11-29T08:22:55.735Z,90.00
2022-11-29T08:25:24.072Z,90.00
2022-11-29T08:27:55.049Z,90.00
2022-11-29T08:30:23.888Z,90.00
2022-11-29T08:32:52.866Z,90.00
2022-11-29T08:35:22.642Z,90.00
2022-11-29T08:37:51.189Z,90.00
2022-11-29T08:40:20.236Z,90.00
2022-11-29T08:42:48.305Z,90.00
2022-11-29T08:45:18.366Z,89.90
2022-11-29T08:47:46.475Z,89.80
2022-11-29T08:50:17.012Z,89.50
2022-11-29T08:53:04.529Z,90.20
2022-11-29T08:55:35.755Z,89.40
2022-11-29T08:58:05.538Z,89.40
2022-11-29T09:00:35.684Z,89.40
2022-11-29T09:03:21.937Z,89.60
2022-11-29T09:05:50.916Z,89.80
2022-11-29T09:08:19.306Z,89.90
2022-11-29T09:10:48.424Z,90.00
2022-11-29T09:13:18.604Z,90.00
2022-11-29T09:15:48.444Z,90.00
2022-11-29T09:18:17.131Z,90.00
2022-11-29T09:20:45.832Z,90.00
2022-11-29T09:23:14.524Z,90.10
2022-11-29T09:25:49.098Z,90.00
2022-11-29T09:28:17.349Z,90.10
2022-11-29T09:30:45.976Z,90.00
2022-11-29T09:33:15.436Z,90.10
2022-11-29T09:35:44.354Z,90.10
2022-11-29T09:38:13.190Z,90.10
2022-11-29T09:40:48.210Z,90.20
2022-11-29T09:43:25.801Z,90.20
2022-11-29T09:46:01.251Z,90.20
2022-11-29T09:48:56.122Z,90.20
2022-11-29T09:51:30.781Z,90.20
2022-11-29T09:54:16.358Z,90.20
2022-11-29T09:56:48.035Z,90.10
2022-11-29T09:59:22.869Z,90.10
2022-11-29T10:01:55.972Z,90.10
2022-11-29T10:04:31.312Z,90.10
2022-11-29T10:07:04.200Z,90.10
2022-11-29T10:09:38.269Z,90.10
2022-11-29T10:12:14.710Z,90.10
2022-11-29T10:14:49.414Z,90.10
2022-11-29T10:17:29.197Z,90.20
2022-11-29T10:20:03.456Z,90.20
2022-11-29T10:22:41.340Z,90.20
2022-11-29T10:25:13.923Z,90.20
2022-11-29T10:27:42.672Z,90.10
2022-11-29T10:30:16.700Z,90.00
2022-11-29T10:32:47.522Z,90.00
2022-11-29T10:35:20.503Z,90.00
2022-11-29T10:38:14.568Z,90.00
2022-11-29T10:40:41.339Z,90.00
2022-11-29T10:43:09.479Z,90.00
2022-11-29T10:45:42.216Z,90.00
2022-11-29T10:48:15.821Z,90.00
2022-11-29T10:50:49.006Z,90.00
2022-11-29T10:53:18.874Z,90.00
2022-11-29T10:55:51.026Z,90.00
2022-11-29T10:58:27.918Z,90.00
2022-11-29T11:00:59.986Z,90.00
2022-11-29T11:03:39.061Z,90.00
2022-11-29T11:06:15.068Z,90.00
2022-11-29T11:08:46.411Z,90.00
2022-11-29T11:11:15.913Z,90.00
2022-11-29T11:13:44.514Z,90.00
2022-11-29T11:16:18.978Z,90.00
2022-11-29T11:18:49.716Z,90.00
2022-11-29T11:21:21.752Z,89.80
2022-11-29T11:23:56.213Z,89.70
2022-11-29T11:26:26.110Z,89.80
2022-11-29T11:28:58.430Z,89.70
2022-11-29T11:31:34.171Z,89.70
2022-11-29T11:34:26.747Z,89.70
2022-11-29T11:37:18.606Z,89.70
2022-11-29T11:39:48.766Z,89.90
2022-11-29T11:42:37.422Z,89.90
2022-11-29T11:45:25.905Z,90.00
2022-11-29T11:47:56.662Z,90.00
2022-11-29T11:50:30.780Z,90.00
2022-11-29T11:53:03.819Z,90.00
2022-11-29T11:55:36.161Z,90.10
2022-11-29T11:58:17.357Z,90.10
2022-11-29T12:01:06.064Z,90.10
2022-11-29T12:03:46.605Z,90.10
2022-11-29T12:06:50.776Z,90.10
2022-11-29T12:09:36.622Z,90.00
2022-11-29T12:12:14.959Z,90.00
2022-11-29T12:14:57.026Z,90.00
2022-11-29T12:17:33.433Z,90.10
2022-11-29T12:20:15.831Z,90.00
2022-11-29T12:22:52.233Z,90.00
2022-11-29T12:25:26.661Z,90.00
2022-11-29T12:27:55.311Z,90.00
2022-11-29T12:30:23.550Z,89.80
2022-11-29T12:33:09.139Z,90.00
2022-11-29T12:36:06.531Z,90.00
2022-11-29T12:38:59.526Z,90.00
2022-11-29T12:41:40.161Z,90.00
2022-11-29T12:44:20.635Z,89.10
2022-11-29T12:47:07.312Z,89.90
2022-11-29T12:49:52.116Z,89.90
2022-11-29T12:52:28.667Z,89.90
2022-11-29T12:55:08.143Z,90.00
2022-11-29T12:57:43.898Z,90.00
2022-11-29T13:00:17.472Z,90.00
2022-11-29T13:03:07.953Z,90.00
2022-11-29T13:05:51.004Z,90.00
2022-11-29T13:08:35.296Z,90.00
2022-11-29T13:11:10.026Z,90.00
2022-11-29T13:13:43.776Z,90.00
2022-11-29T13:16:31.049Z,90.00
2022-11-29T13:19:06.352Z,90.00
2022-11-29T13:21:40.923Z,90.00
2022-11-29T13:24:13.173Z,90.00
2022-11-29T13:26:43.478Z,90.00
2022-11-29T13:29:17.571Z,90.00
2022-11-29T13:31:46.780Z,90.00
2022-11-29T13:34:20.971Z,90.00
2022-11-29T13:37:05.326Z,90.00
2022-11-29T13:39:52.417Z,90.00
2022-11-29T13:42:29.003Z,90.00
2022-11-29T13:45:04.403Z,90.00
2022-11-29T13:47:33.064Z,90.00
2022-11-29T13:50:03.653Z,90.00
2022-11-29T13:52:43.203Z,90.00
2022-11-29T13:55:29.286Z,90.00
2022-11-29T13:58:16.720Z,90.00
2022-11-29T14:00:52.907Z,90.00
2022-11-29T14:03:34.214Z,90.00
2022-11-29T14:06:13.351Z,90.00
2022-11-29T14:11:46.583Z,90.00
2022-11-29T14:14:26.122Z,89.90
2022-11-29T14:17:00.295Z,89.70
2022-11-29T14:19:33.836Z,89.50
2022-11-29T14:22:30.873Z,89.50
2022-11-29T14:25:53.308Z,89.50
2022-11-29T14:28:32.152Z,89.60
2022-11-29T14:31:02.216Z,89.70
2022-11-29T14:34:01.996Z,89.70
2022-11-29T14:36:51.765Z,89.90
2022-11-29T14:39:29.588Z,89.90
2022-11-29T14:42:14.333Z,90.00
2022-11-29T14:44:49.878Z,90.00
2022-11-29T14:47:30.274Z,90.10
2022-11-29T14:50:02.260Z,90.10
2022-11-29T14:52:33.924Z,90.10
2022-11-29T14:55:09.320Z,90.20
2022-11-29T14:57:54.963Z,90.20
2022-11-29T15:00:25.231Z,90.20
2022-11-29T15:02:59.073Z,90.20
2022-11-29T15:05:33.700Z,90.20
2022-11-29T15:08:10.094Z,90.20
2022-11-29T15:10:42.324Z,90.20
2022-11-29T15:13:14.732Z,90.20
2022-11-29T15:15:55.683Z,90.20
2022-11-29T15:18:37.383Z,90.20
2022-11-29T15:21:23.147Z,90.20
2022-11-29T15:24:00.283Z,90.20
2022-11-29T15:26:28.898Z,90.20
2022-11-29T15:29:15.422Z,90.10
2022-11-29T15:31:45.344Z,90.20
2022-11-29T15:34:22.300Z,90.10
2022-11-29T15:36:52.266Z,90.20
2022-11-29T15:39:28.948Z,90.20
2022-11-29T15:42:02.303Z,90.20
2022-11-29T15:44:33.159Z,90.20
2022-11-29T15:47:19.129Z,90.30
2022-11-29T15:49:47.333Z,90.30
2022-11-29T15:52:21.285Z,90.30
2022-11-29T15:54:53.197Z,90.30
2022-11-29T15:57:26.957Z,90.30
2022-11-29T15:59:58.123Z,90.30
2022-11-29T16:02:29.565Z,90.30
2022-11-29T16:05:00.894Z,90.30
2022-11-29T16:07:34.664Z,90.30
2022-11-29T16:10:09.225Z,90.20
2022-11-29T16:12:51.310Z,90.10
2022-11-29T16:15:28.307Z,90.10
2022-11-29T16:17:57.145Z,90.00
2022-11-29T16:20:27.717Z,90.00
2022-11-29T16:23:12.463Z,90.10
2022-11-29T16:25:59.889Z,90.20
2022-11-29T16:28:32.596Z,90.20
2022-11-29T16:31:01.442Z,90.30
2022-11-29T16:33:30.502Z,90.30
2022-11-29T16:36:07.201Z,90.30
2022-11-29T16:38:37.223Z,90.40
2022-11-29T16:41:07.747Z,90.40
2022-11-29T16:43:54.237Z,90.40
2022-11-29T16:46:38.923Z,90.40
2022-11-29T16:49:34.263Z,90.40
2022-11-29T16:52:03.333Z,90.50
2022-11-29T16:54:34.901Z,90.40
2022-11-29T16:57:06.407Z,90.40
2022-11-29T16:59:38.196Z,90.50
2022-11-29T17:02:10.790Z,90.50
2022-11-29T17:04:39.421Z,90.50
2022-11-29T17:07:10.400Z,90.50
2022-11-29T17:09:40.422Z,90.50
2022-11-29T17:12:14.160Z,90.50
2022-11-29T17:14:46.007Z,90.50
2022-11-29T17:17:15.767Z,90.50
2022-11-29T17:19:44.481Z,90.50
2022-11-29T17:22:12.871Z,90.50
2022-11-29T17:24:47.756Z,90.50
2022-11-29T17:27:17.106Z,90.50
2022-11-29T17:29:45.683Z,90.50
2022-11-29T17:32:14.288Z,90.50
2022-11-29T17:34:42.429Z,90.50
2022-11-29T17:37:11.052Z,90.40
2022-11-29T17:39:39.293Z,90.40
2022-11-29T17:42:09.300Z,90.30
2022-11-29T17:44:37.958Z,90.20
2022-11-29T17:47:06.094Z,90.10
2022-11-29T17:49:34.730Z,90.20
2022-11-29T17:52:03.009Z,90.20
2022-11-29T17:54:33.110Z,90.20
2022-11-29T17:57:02.381Z,90.30
2022-11-29T17:59:32.405Z,90.40
2022-11-29T18:02:02.068Z,90.40
2022-11-29T18:04:30.302Z,90.40
2022-11-29T18:06:59.273Z,90.40
2022-11-29T18:09:27.343Z,90.40
2022-11-29T18:11:55.937Z,90.40
2022-11-29T18:14:28.284Z,90.50
2022-11-29T18:16:58.599Z,90.50
2022-11-29T18:19:27.373Z,90.50
2022-11-29T18:21:55.992Z,90.50
2022-11-29T18:24:24.134Z,90.40
2022-11-29T18:26:52.290Z,90.40
2022-11-29T18:29:21.121Z,90.40
2022-11-29T18:31:49.759Z,90.40
2022-11-29T18:34:19.249Z,90.40
2022-11-29T18:36:49.582Z,90.40
2022-11-29T18:39:19.249Z,90.40
2022-11-29T18:41:49.531Z,90.40
2022-11-29T18:44:19.466Z,90.40
2022-11-29T18:46:47.967Z,90.40
2022-11-29T18:49:19.311Z,90.40
2022-11-29T18:51:48.977Z,90.40
2022-11-29T18:54:19.177Z,90.40
2022-11-29T18:56:48.680Z,90.40
2022-11-29T18:59:18.332Z,90.40
2022-11-29T19:01:48.847Z,90.30
2022-11-29T19:04:20.061Z,90.30
2022-11-29T19:06:49.079Z,90.30
2022-11-29T19:09:19.734Z,90.30
2022-11-29T19:11:48.762Z,90.30
2022-11-29T19:14:17.423Z,90.20
2022-11-29T19:16:48.011Z,90.20
2022-11-29T19:19:19.045Z,90.20
2022-11-29T19:21:48.803Z,90.20
2022-11-29T19:24:18.622Z,90.20
2022-11-29T19:26:47.911Z,90.60
2022-11-29T19:29:17.640Z,90.20
2022-11-29T19:31:46.274Z,90.20
2022-11-29T19:34:14.667Z,90.10
2022-11-29T19:36:44.414Z,90.10
2022-11-29T19:39:18.534Z,90.10
2022-11-29T19:41:48.923Z,90.10
2022-11-29T19:44:17.573Z,90.10
2022-11-29T19:46:48.985Z,90.00
2022-11-29T19:49:17.658Z,90.10
2022-11-29T19:51:46.430Z,90.10
2022-11-29T19:54:15.877Z,90.10
2022-11-29T19:56:44.509Z,90.10
2022-11-29T19:59:12.605Z,90.10
2022-11-29T20:01:42.730Z,90.10
2022-11-29T20:04:13.241Z,90.10
2022-11-29T20:06:42.317Z,90.10
2022-11-29T20:09:11.420Z,90.10
2022-11-29T20:11:40.959Z,90.20
2022-11-29T20:14:09.386Z,90.20
2022-11-29T20:16:39.548Z,90.20
2022-11-29T20:19:12.581Z,90.30
2022-11-29T20:21:44.486Z,90.30
2022-11-29T20:24:14.331Z,90.30
2022-11-29T20:26:46.076Z,90.30
2022-11-29T20:29:15.323Z,90.30
2022-11-29T20:31:50.065Z,90.30
2022-11-29T20:34:20.151Z,90.40
2022-11-29T20:37:07.552Z,90.30
2022-11-29T20:39:42.947Z,90.30
2022-11-29T20:42:32.405Z,90.20
2022-11-29T20:45:02.034Z,90.20
2022-11-29T20:47:41.993Z,90.20
2022-11-29T20:50:17.613Z,90.20
2022-11-29T20:52:53.059Z,90.20
2022-11-29T20:55:21.288Z,89.80
2022-11-29T20:57:51.392Z,90.20
2022-11-29T21:00:20.456Z,90.30
2022-11-29T21:02:48.593Z,90.30
2022-11-29T21:05:17.780Z,90.30
2022-11-29T21:07:46.744Z,90.30
2022-11-29T21:10:15.903Z,90.30
2022-11-29T21:12:45.699Z,90.20
2022-11-29T21:15:17.425Z,90.30
2022-11-29T21:17:46.658Z,90.30
2022-11-29T21:20:21.699Z,90.30
2022-11-29T21:22:56.494Z,90.30
2022-11-29T21:25:36.319Z,90.30
2022-11-29T21:28:09.471Z,90.30
2022-11-29T21:30:39.871Z,90.30
2022-11-29T21:33:09.391Z,90.30
2022-11-29T21:35:39.660Z,90.30
2022-11-29T21:38:11.802Z,90.30
2022-11-29T21:40:39.935Z,90.40
2022-11-29T21:43:08.089Z,90.40
2022-11-29T21:45:36.276Z,90.40
2022-11-29T21:48:26.653Z,90.30
2022-11-29T21:50:56.826Z,90.40
2022-11-29T21:53:25.012Z,90.30
2022-11-29T21:55:57.969Z,90.40
2022-11-29T21:58:26.157Z,90.40
2022-11-29T22:00:54.729Z,90.40
2022-11-29T22:03:24.276Z,90.40
2022-11-29T22:05:52.764Z,90.40
2022-11-29T22:08:21.359Z,90.40
2022-11-29T22:10:49.492Z,90.40
2022-11-29T22:13:17.829Z,90.40
2022-11-29T22:15:46.044Z,90.40
2022-11-29T22:18:14.704Z,90.40
2022-11-29T22:20:45.775Z,90.40
2022-11-29T22:23:13.850Z,90.50
2022-11-29T22:25:42.462Z,90.40
2022-11-29T22:28:10.584Z,90.40
2022-11-29T22:30:39.208Z,90.40
2022-11-29T22:33:13.170Z,90.40
2022-11-29T22:35:45.471Z,90.50
2022-11-29T22:38:14.106Z,90.50
2022-11-29T22:40:42.270Z,90.50
2022-11-29T22:43:11.044Z,90.40
2022-11-29T22:45:40.057Z,90.50
2022-11-29T22:48:08.210Z,90.50
2022-11-29T22:50:36.821Z,90.50
2022-11-29T22:53:06.297Z,90.50
2022-11-29T22:55:34.918Z,90.50
2022-11-29T22:58:03.063Z,90.50
2022-11-29T23:00:32.521Z,90.50
2022-11-29T23:03:01.234Z,91.00
2022-11-29T23:05:32.283Z,90.50
2022-11-29T23:08:01.280Z,90.50
2022-11-29T23:10:30.783Z,90.50
2022-11-29T23:12:59.041Z,90.50
2022-11-29T23:15:27.243Z,90.50
2022-11-29T23:17:55.473Z,90.50
2022-11-29T23:20:24.127Z,90.50
2022-11-29T23:22:52.229Z,90.50
2022-11-29T23:25:20.362Z,90.50
2022-11-29T23:27:50.707Z,90.50
2022-11-29T23:30:18.970Z,90.50
2022-11-29T23:32:50.709Z,90.50
2022-11-29T23:35:18.892Z,90.50
2022-11-29T23:37:47.148Z,90.50
2022-11-29T23:40:15.979Z,90.50
2022-11-29T23:42:47.071Z,90.50
2022-11-29T23:45:17.508Z,90.50
2022-11-29T23:47:45.892Z,90.50
2022-11-29T23:50:14.702Z,90.50
2022-11-29T23:52:43.326Z,90.50
2022-11-29T23:55:14.495Z,90.50
2022-11-29T23:57:42.714Z,90.50
